Time;durP1;ratioP1;P1;durP2;ratioP2;P2;SDS_P1;SDS_P2;PMS_P1;PMS_P2;Temp;Humidity;BMP_temperature;BMP_pressure;BME280_temperature;BME280_humidity;BME280_pressure;Samples;Min_cycle;Max_cycle;Signal;HPM_P1;HPM_P2
2023/11/09 00:00:40;;;;;;;;;;;20.70;66.70;;;;;;1501814;78;1498;-59
2023/11/09 00:02:42;;;;;;;;;;;20.70;66.80;;;;;;1494017;78;1176;-59
2023/11/09 00:04:44;;;;;;;;;;;20.60;66.60;;;;;;1493707;78;697;-58
2023/11/09 00:06:46;;;;;;;;;;;20.70;66.80;;;;;;1499505;78;762;-60
2023/11/09 00:08:48;;;;;;;;;;;20.70;66.80;;;;;;1492791;78;730;-57
2023/11/09 00:10:50;;;;;;;;;;;20.70;66.80;;;;;;1484627;78;805;-59
2023/11/09 00:12:53;;;;;;;;;;;20.60;66.80;;;;;;1503796;78;1146;-59
2023/11/09 00:14:55;;;;;;;;;;;20.70;66.90;;;;;;1491920;78;1570;-59
2023/11/09 00:16:57;;;;;;;;;;;20.60;66.90;;;;;;1492502;78;1934;-57
2023/11/09 00:19:00;;;;;;;;;;;20.60;66.90;;;;;;1492212;78;785;-57
2023/11/09 00:21:02;;;;;;;;;;;20.60;67.00;;;;;;1493244;78;751;-58
2023/11/09 00:23:04;;;;;;;;;;;20.60;66.90;;;;;;1486440;78;1129;-58
2023/11/09 00:25:06;;;;;;;;;;;20.60;67.00;;;;;;1492479;78;715;-60
2023/11/09 00:27:08;;;;;;;;;;;20.60;67.10;;;;;;1499962;78;728;-59
2023/11/09 00:29:10;;;;;;;;;;;20.60;67.00;;;;;;1491679;78;1552;-59
2023/11/09 00:31:12;;;;;;;;;;;20.60;67.00;;;;;;1493042;78;769;-60
2023/11/09 00:33:14;;;;;;;;;;;20.60;67.00;;;;;;1488014;78;1142;-60
2023/11/09 00:35:19;;;;;;;;;;;20.70;67.20;;;;;;1491049;78;723;-59
2023/11/09 00:37:22;;;;;;;;;;;20.60;67.20;;;;;;1483653;78;1916;-59
2023/11/09 00:39:23;;;;;;;;;;;20.60;67.20;;;;;;1493421;78;1740;-59
2023/11/09 00:41:25;;;;;;;;;;;20.60;67.20;;;;;;1493210;78;1144;-59
2023/11/09 00:43:26;;;;;;;;;;;20.60;67.30;;;;;;1490213;78;1487;-58
2023/11/09 00:45:28;;;;;;;;;;;20.60;67.30;;;;;;1497813;78;727;-59
2023/11/09 00:47:30;;;;;;;;;;;20.60;67.20;;;;;;1500586;78;700;-59
2023/11/09 00:49:32;;;;;;;;;;;20.60;67.30;;;;;;1494895;78;781;-55
2023/11/09 00:51:34;;;;;;;;;;;20.60;67.40;;;;;;1501177;78;1131;-57
2023/11/09 00:53:37;;;;;;;;;;;20.60;67.30;;;;;;1485232;78;692;-58
2023/11/09 00:55:39;;;;;;;;;;;20.60;67.30;;;;;;1498415;78;734;-57
2023/11/09 00:57:41;;;;;;;;;;;20.60;67.30;;;;;;1489942;78;1921;-57
2023/11/09 00:59:49;;;;;;;;;;;20.60;67.40;;;;;;1493163;78;705;-57
2023/11/09 01:01:46;;;;;;;;;;;20.60;67.30;;;;;;1494250;78;1499;-56
2023/11/09 01:03:48;;;;;;;;;;;20.60;67.30;;;;;;1495256;78;767;-59
2023/11/09 01:05:53;;;;;;;;;;;20.60;67.30;;;;;;1491671;78;782;-59
2023/11/09 01:07:54;;;;;;;;;;;20.60;67.40;;;;;;1492564;78;1539;-59
2023/11/09 01:09:56;;;;;;;;;;;20.60;67.40;;;;;;1495515;78;1550;-56
2023/11/09 01:11:57;;;;;;;;;;;20.60;67.40;;;;;;1495551;78;1137;-58
2023/11/09 01:13:59;;;;;;;;;;;20.60;67.40;;;;;;1494658;78;727;-58
2023/11/09 01:16:01;;;;;;;;;;;20.60;67.40;;;;;;1500703;78;802;-55
2023/11/09 01:18:04;;;;;;;;;;;20.60;67.50;;;;;;1496110;78;1942;-58
2023/11/09 01:20:07;;;;;;;;;;;20.60;67.40;;;;;;1483611;78;715;-58
2023/11/09 01:22:08;;;;;;;;;;;20.60;67.40;;;;;;1487909;78;1137;-55
2023/11/09 01:24:10;;;;;;;;;;;20.60;67.50;;;;;;1491812;78;1547;-58
2023/11/09 01:26:13;;;;;;;;;;;20.60;67.50;;;;;;1501137;78;807;-59
2023/11/09 01:28:15;;;;;;;;;;;20.60;67.50;;;;;;1494104;78;869;-59
2023/11/09 01:30:25;;;;;;;;;;;20.60;67.40;;;;;;1489686;78;843;-60
2023/11/09 01:32:28;;;;;;;;;;;20.60;67.50;;;;;;1494040;78;1134;-59
2023/11/09 01:34:31;;;;;;;;;;;20.60;67.60;;;;;;1482139;78;760;-59
2023/11/09 01:36:33;;;;;;;;;;;20.60;67.50;;;;;;1494448;78;685;-59
2023/11/09 01:38:35;;;;;;;;;;;20.60;67.50;;;;;;1502056;78;1918;-59
2023/11/09 01:40:38;;;;;;;;;;;20.60;67.40;;;;;;1494869;78;802;-60
2023/11/09 01:42:41;;;;;;;;;;;20.60;67.40;;;;;;1500055;78;1161;-59
2023/11/09 01:44:43;;;;;;;;;;;20.60;67.50;;;;;;1484740;78;722;-58
2023/11/09 01:46:46;;;;;;;;;;;20.60;67.60;;;;;;1492303;78;770;-58
2023/11/09 01:48:48;;;;;;;;;;;20.60;67.50;;;;;;1493660;78;756;-60
2023/11/09 01:50:54;;;;;;;;;;;20.60;67.50;;;;;;1487086;78;789;-60
2023/11/09 01:52:54;;;;;;;;;;;20.60;67.50;;;;;;1490996;78;1627;-60
2023/11/09 01:54:56;;;;;;;;;;;20.60;67.50;;;;;;1491156;78;659;-57
2023/11/09 01:56:58;;;;;;;;;;;20.60;67.40;;;;;;1503290;78;722;-57
2023/11/09 01:59:00;;;;;;;;;;;20.60;67.50;;;;;;1496068;78;1932;-59
2023/11/09 02:01:02;;;;;;;;;;;20.60;67.50;;;;;;1491939;78;689;-59
2023/11/09 02:03:04;;;;;;;;;;;20.60;67.50;;;;;;1488884;78;1107;-57
2023/11/09 02:05:06;;;;;;;;;;;20.60;67.60;;;;;;1489705;78;731;-55
2023/11/09 02:07:08;;;;;;;;;;;20.60;67.50;;;;;;1498590;78;1530;-58
2023/11/09 02:09:10;;;;;;;;;;;20.70;67.70;;;;;;1494540;78;686;-54
2023/11/09 02:11:12;;;;;;;;;;;20.60;67.50;;;;;;1499271;78;676;-55
2023/11/09 02:13:14;;;;;;;;;;;20.70;67.80;;;;;;1493716;78;1117;-57
2023/11/09 02:15:16;;;;;;;;;;;20.60;67.70;;;;;;1491866;78;722;-60
2023/11/09 02:17:18;;;;;;;;;;;20.60;67.60;;;;;;1491030;78;739;-57
2023/11/09 02:19:20;;;;;;;;;;;20.60;67.60;;;;;;1497850;78;1946;-58
2023/11/09 02:21:22;;;;;;;;;;;20.60;67.50;;;;;;1488573;78;1255;-58
2023/11/09 02:23:24;;;;;;;;;;;20.60;67.60;;;;;;1492566;78;718;-57
2023/11/09 02:25:26;;;;;;;;;;;20.60;67.60;;;;;;1502711;78;791;-58
2023/11/09 02:27:28;;;;;;;;;;;20.60;67.60;;;;;;1489853;78;757;-57
2023/11/09 02:29:30;;;;;;;;;;;20.70;67.70;;;;;;1490311;78;806;-56
2023/11/09 02:31:31;;;;;;;;;;;20.60;67.60;;;;;;1487651;78;1149;-58
2023/11/09 02:33:33;;;;;;;;;;;20.60;67.60;;;;;;1488379;78;722;-59
2023/11/09 02:35:37;;;;;;;;;;;20.60;67.60;;;;;;1482272;78;1527;-58
2023/11/09 02:37:38;;;;;;;;;;;20.60;67.70;;;;;;1492676;78;1918;-57
2023/11/09 02:39:40;;;;;;;;;;;20.60;67.60;;;;;;1493377;78;748;-57
2023/11/09 02:41:42;;;;;;;;;;;20.60;67.60;;;;;;1489013;78;1182;-55
2023/11/09 02:43:44;;;;;;;;;;;20.60;67.60;;;;;;1485303;78;724;-56
2023/11/09 02:45:46;;;;;;;;;;;20.60;67.60;;;;;;1490204;78;676;-60
2023/11/09 02:47:48;;;;;;;;;;;20.70;67.70;;;;;;1487915;78;781;-59
2023/11/09 02:49:50;;;;;;;;;;;20.70;67.60;;;;;;1496309;78;1554;-60
2023/11/09 02:51:52;;;;;;;;;;;20.60;67.60;;;;;;1496027;78;1123;-55
2023/11/09 02:53:54;;;;;;;;;;;20.60;67.60;;;;;;1483999;78;732;-60
2023/11/09 02:55:56;;;;;;;;;;;20.70;67.70;;;;;;1492625;78;639;-58
2023/11/09 02:57:58;;;;;;;;;;;20.60;67.60;;;;;;1487566;78;1931;-57
2023/11/09 03:00:03;;;;;;;;;;;20.60;67.60;;;;;;1491045;78;754;-60
2023/11/09 03:02:06;;;;;;;;;;;20.60;67.50;;;;;;1495097;78;1526;-55
2023/11/09 03:04:07;;;;;;;;;;;20.60;67.40;;;;;;1504009;78;1512;-59
2023/11/09 03:06:09;;;;;;;;;;;20.70;67.60;;;;;;1488503;78;770;-58
2023/11/09 03:08:11;;;;;;;;;;;20.60;67.50;;;;;;1466318;79;854;-58
2023/11/09 03:10:13;;;;;;;;;;;20.60;67.40;;;;;;1487152;78;865;-56
2023/11/09 03:12:15;;;;;;;;;;;20.60;67.50;;;;;;1492946;78;1152;-58
2023/11/09 03:14:17;;;;;;;;;;;20.60;67.50;;;;;;1487374;78;729;-59
2023/11/09 03:16:21;;;;;;;;;;;20.60;67.40;;;;;;1489664;78;710;-57
2023/11/09 03:18:22;;;;;;;;;;;20.60;67.40;;;;;;1486996;78;1934;-58
2023/11/09 03:20:24;;;;;;;;;;;20.60;67.40;;;;;;1504831;78;808;-57
2023/11/09 03:22:26;;;;;;;;;;;20.60;67.30;;;;;;1495530;78;1164;-59
2023/11/09 03:24:29;;;;;;;;;;;20.60;67.40;;;;;;1490133;78;689;-60
2023/11/09 03:26:34;;;;;;;;;;;20.60;67.20;;;;;;1494199;78;674;-59
2023/11/09 03:28:37;;;;;;;;;;;20.60;67.00;;;;;;1493978;78;1563;-60
2023/11/09 03:30:38;;;;;;;;;;;20.60;66.90;;;;;;1499844;78;1640;-60
2023/11/09 03:32:40;;;;;;;;;;;20.60;66.80;;;;;;1486734;78;1141;-59
2023/11/09 03:34:42;;;;;;;;;;;20.60;66.70;;;;;;1489901;78;651;-60
2023/11/09 03:36:45;;;;;;;;;;;20.60;66.60;;;;;;1499676;78;671;-60
2023/11/09 03:38:48;;;;;;;;;;;20.60;66.50;;;;;;1489512;78;1917;-58
2023/11/09 03:40:50;;;;;;;;;;;20.70;66.50;;;;;;1495655;78;712;-59
2023/11/09 03:42:52;;;;;;;;;;;20.60;66.40;;;;;;1499582;78;1158;-59
2023/11/09 03:44:54;;;;;;;;;;;20.60;66.30;;;;;;1493886;78;1525;-59
2023/11/09 03:46:56;;;;;;;;;;;20.60;66.10;;;;;;1492992;78;757;-59
2023/11/09 03:48:59;;;;;;;;;;;20.60;66.10;;;;;;1492741;78;757;-59
2023/11/09 03:51:00;;;;;;;;;;;20.60;66.10;;;;;;1486711;78;670;-59
2023/11/09 03:53:02;;;;;;;;;;;20.70;66.10;;;;;;1494543;78;1122;-59
2023/11/09 03:55:05;;;;;;;;;;;20.60;65.90;;;;;;1501284;78;652;-60
2023/11/09 03:57:07;;;;;;;;;;;20.70;66.00;;;;;;1501787;78;629;-60
2023/11/09 03:59:09;;;;;;;;;;;20.70;66.00;;;;;;1495664;78;1922;-60
2023/11/09 04:01:11;;;;;;;;;;;20.60;65.90;;;;;;1492865;78;774;-58
2023/11/09 04:03:14;;;;;;;;;;;20.60;65.90;;;;;;1497263;78;1073;-55
2023/11/09 04:05:18;;;;;;;;;;;20.70;66.00;;;;;;1493595;78;726;-58
2023/11/09 04:07:19;;;;;;;;;;;20.70;65.90;;;;;;1488927;78;1546;-59
2023/11/09 04:09:21;;;;;;;;;;;20.70;66.00;;;;;;1493728;78;743;-58
2023/11/09 04:11:23;;;;;;;;;;;20.70;65.90;;;;;;1493654;78;775;-59
2023/11/09 04:13:25;;;;;;;;;;;20.70;65.90;;;;;;1496126;78;1297;-59
2023/11/09 04:15:27;;;;;;;;;;;20.70;66.00;;;;;;1496943;78;735;-59
2023/11/09 04:17:29;;;;;;;;;;;20.70;66.00;;;;;;1491514;78;621;-59
2023/11/09 04:19:31;;;;;;;;;;;20.70;65.90;;;;;;1487086;78;1916;-58
2023/11/09 04:21:33;;;;;;;;;;;20.70;66.00;;;;;;1497447;78;1144;-59
2023/11/09 04:23:35;;;;;;;;;;;20.70;66.00;;;;;;1495831;78;667;-60
2023/11/09 04:25:37;;;;;;;;;;;20.70;66.10;;;;;;1483788;78;710;-59
2023/11/09 04:27:39;;;;;;;;;;;20.70;66.00;;;;;;1493430;78;1517;-58
2023/11/09 04:29:42;;;;;;;;;;;20.70;66.20;;;;;;1494623;78;847;-59
2023/11/09 04:31:47;;;;;;;;;;;20.70;66.10;;;;;;1496260;78;1092;-58
2023/11/09 04:33:47;;;;;;;;;;;20.70;66.10;;;;;;1493596;78;1651;-60
2023/11/09 04:35:52;;;;;;;;;;;20.70;66.20;;;;;;1498548;78;732;-58
2023/11/09 04:37:56;;;;;;;;;;;20.70;66.40;;;;;;1493689;78;1657;-59
2023/11/09 04:39:58;;;;;;;;;;;20.70;66.50;;;;;;1484674;78;1930;-60
2023/11/09 04:42:04;;;;;;;;;;;20.70;66.40;;;;;;1488569;78;1590;-60
2023/11/09 04:44:04;;;;;;;;;;;20.70;66.50;;;;;;1489111;78;1590;-60
2023/11/09 04:46:10;;;;;;;;;;;20.70;66.60;;;;;;1497012;78;709;-60
2023/11/09 04:48:19;;;;;;;;;;;20.70;66.60;;;;;;1490596;78;1430;-60
2023/11/09 04:50:22;;;;;;;;;;;20.70;66.50;;;;;;1492456;78;1503;-55
2023/11/09 04:52:25;;;;;;;;;;;20.70;66.70;;;;;;1479975;78;1548;-57
2023/11/09 04:54:24;;;;;;;;;;;20.70;66.80;;;;;;1484221;78;1646;-56
2023/11/09 04:58:48;;;;;;;;;;;20.70;66.90;;;;;;1480202;78;1934;-55
2023/11/09 05:07:50;;;;;;;;;;;20.70;66.80;;;;;;1477231;79;1697;-60
2023/11/09 05:09:52;;;;;;;;;;;20.70;67.00;;;;;;1476781;79;1319;-60
2023/11/09 05:11:54;;;;;;;;;;;20.70;66.80;;;;;;1470940;79;1128;-60
2023/11/09 05:13:56;;;;;;;;;;;20.70;66.90;;;;;;1469511;79;759;-57
2023/11/09 05:15:58;;;;;;;;;;;20.70;67.10;;;;;;1480162;79;687;-59
2023/11/09 05:18:00;;;;;;;;;;;20.80;66.90;;;;;;1481964;79;762;-58
2023/11/09 05:20:05;;;;;;;;;;;20.70;66.90;;;;;;1471489;79;1924;-59
2023/11/09 05:22:08;;;;;;;;;;;20.80;66.70;;;;;;1483562;79;1696;-59
2023/11/09 05:24:09;;;;;;;;;;;20.70;66.60;;;;;;1477077;79;1485;-60
2023/11/09 05:26:11;;;;;;;;;;;20.80;66.50;;;;;;1483667;79;744;-60
2023/11/09 05:28:13;;;;;;;;;;;20.80;66.80;;;;;;1478938;79;701;-58
2023/11/09 05:30:16;;;;;;;;;;;20.70;67.40;;;;;;1472164;79;777;-59
2023/11/09 05:32:18;;;;;;;;;;;20.70;67.80;;;;;;1477803;79;1146;-59
2023/11/09 05:34:20;;;;;;;;;;;20.80;67.90;;;;;;1481047;79;791;-59
2023/11/09 05:36:22;;;;;;;;;;;20.70;67.60;;;;;;1469821;79;742;-59
2023/11/09 05:38:24;;;;;;;;;;;20.70;67.50;;;;;;1473931;79;1576;-59
2023/11/09 05:40:26;;;;;;;;;;;20.70;67.30;;;;;;1478311;79;1948;-57
2023/11/09 05:42:28;;;;;;;;;;;20.70;67.20;;;;;;1478458;79;1178;-59
2023/11/09 05:44:30;;;;;;;;;;;20.70;67.20;;;;;;1477443;79;856;-59
2023/11/09 05:46:32;;;;;;;;;;;20.70;67.10;;;;;;1480887;79;742;-59
2023/11/09 05:48:34;;;;;;;;;;;20.70;67.00;;;;;;1476070;79;791;-58
2023/11/09 05:50:36;;;;;;;;;;;20.70;67.00;;;;;;1479930;79;713;-60
2023/11/09 05:52:38;;;;;;;;;;;20.70;66.90;;;;;;1465656;79;1532;-59
2023/11/09 05:54:40;;;;;;;;;;;20.70;66.80;;;;;;1475592;79;731;-59
2023/11/09 05:56:42;;;;;;;;;;;20.70;66.70;;;;;;1469655;79;715;-59
2023/11/09 05:58:44;;;;;;;;;;;20.70;66.60;;;;;;1475575;79;1911;-60
2023/11/09 06:00:46;;;;;;;;;;;20.70;66.50;;;;;;1472196;79;756;-59
2023/11/09 06:02:48;;;;;;;;;;;20.70;66.40;;;;;;1484583;79;1110;-59
2023/11/09 06:04:51;;;;;;;;;;;20.70;66.30;;;;;;1485822;79;748;-58
2023/11/09 06:06:53;;;;;;;;;;;20.60;64.80;;;;;;1474862;79;1520;-60
2023/11/09 06:08:55;;;;;;;;;;;20.50;61.90;;;;;;1469919;79;759;-59
2023/11/09 06:10:57;;;;;;;;;;;20.50;64.20;;;;;;1473299;79;683;-60
2023/11/09 06:12:59;;;;;;;;;;;20.50;63.60;;;;;;1473664;79;1149;-59
2023/11/09 06:15:04;;;;;;;;;;;20.50;63.10;;;;;;1480091;79;784;-58
2023/11/09 06:17:04;;;;;;;;;;;20.60;64.30;;;;;;1484602;79;1506;-59
2023/11/09 06:19:07;;;;;;;;;;;20.60;64.60;;;;;;1480976;79;1955;-59
2023/11/09 06:21:09;;;;;;;;;;;20.60;64.70;;;;;;1479879;79;1415;-59
2023/11/09 06:23:11;;;;;;;;;;;20.60;64.60;;;;;;1473860;79;1125;-60
2023/11/09 06:25:13;;;;;;;;;;;20.60;64.50;;;;;;1472516;79;712;-59
2023/11/09 06:27:17;;;;;;;;;;;20.60;64.50;;;;;;1484813;79;720;-60
2023/11/09 06:29:18;;;;;;;;;;;20.60;64.50;;;;;;1477937;79;1700;-59
2023/11/09 06:31:23;;;;;;;;;;;20.60;64.50;;;;;;1478973;79;759;-59
2023/11/09 06:33:25;;;;;;;;;;;20.60;64.40;;;;;;1481730;79;1474;-60
2023/11/09 06:35:27;;;;;;;;;;;20.60;64.30;;;;;;1475173;79;687;-60
2023/11/09 06:37:28;;;;;;;;;;;20.60;64.30;;;;;;1480962;79;763;-60
2023/11/09 06:39:30;;;;;;;;;;;20.60;64.30;;;;;;1470428;79;1944;-59
2023/11/09 06:41:32;;;;;;;;;;;20.70;64.40;;;;;;1483295;79;1155;-58
2023/11/09 06:43:36;;;;;;;;;;;20.60;64.30;;;;;;1479773;79;735;-59
2023/11/09 06:45:37;;;;;;;;;;;20.60;64.20;;;;;;1477906;79;761;-60
2023/11/09 06:47:41;;;;;;;;;;;20.60;64.20;;;;;;1477554;79;1538;-60
2023/11/09 06:49:43;;;;;;;;;;;20.60;64.20;;;;;;1487001;79;730;-60
2023/11/09 06:51:45;;;;;;;;;;;20.60;64.10;;;;;;1473996;79;1115;-59
2023/11/09 06:53:47;;;;;;;;;;;20.60;64.10;;;;;;1475504;79;842;-60
2023/11/09 06:55:49;;;;;;;;;;;20.60;64.10;;;;;;1482161;79;678;-60
2023/11/09 06:57:53;;;;;;;;;;;20.60;64.10;;;;;;1482483;79;737;-59
2023/11/09 06:59:55;;;;;;;;;;;20.60;64.20;;;;;;1475766;79;1935;-58
2023/11/09 07:01:57;;;;;;;;;;;20.60;64.20;;;;;;1477096;79;1576;-60
2023/11/09 07:03:59;;;;;;;;;;;20.60;64.10;;;;;;1482925;79;703;-60
2023/11/09 07:06:00;;;;;;;;;;;20.60;64.20;;;;;;1480896;79;743;-59
2023/11/09 07:08:04;;;;;;;;;;;20.60;64.20;;;;;;1491973;79;749;-59
2023/11/09 07:10:07;;;;;;;;;;;20.60;64.20;;;;;;1476842;79;815;-59
2023/11/09 07:12:09;;;;;;;;;;;20.50;64.20;;;;;;1477540;79;1145;-58
2023/11/09 07:14:11;;;;;;;;;;;20.50;64.20;;;;;;1479189;79;667;-59
2023/11/09 07:16:13;;;;;;;;;;;20.60;64.20;;;;;;1476512;79;1312;-60
2023/11/09 07:18:15;;;;;;;;;;;20.60;64.20;;;;;;1489206;79;760;-60
2023/11/09 07:20:18;;;;;;;;;;;20.50;64.20;;;;;;1484028;79;1947;-58
2023/11/09 07:22:24;;;;;;;;;;;20.60;64.20;;;;;;1477899;79;1156;-59
2023/11/09 07:24:29;;;;;;;;;;;20.50;64.20;;;;;;1475775;79;765;-60
2023/11/09 07:26:30;;;;;;;;;;;20.50;64.20;;;;;;1480860;79;1519;-60
2023/11/09 07:28:32;;;;;;;;;;;20.50;64.20;;;;;;1486895;79;702;-59
2023/11/09 07:30:34;;;;;;;;;;;20.50;64.20;;;;;;1473862;79;1571;-58
2023/11/09 07:32:37;;;;;;;;;;;20.50;64.20;;;;;;1476578;79;1132;-59
2023/11/09 07:34:39;;;;;;;;;;;20.50;64.20;;;;;;1473806;79;920;-59
2023/11/09 07:36:41;;;;;;;;;;;20.60;64.20;;;;;;1473634;79;757;-59
2023/11/09 07:38:43;;;;;;;;;;;20.50;64.20;;;;;;1479697;79;696;-59
2023/11/09 07:40:46;;;;;;;;;;;20.50;64.20;;;;;;1469343;79;1940;-59
2023/11/09 07:42:49;;;;;;;;;;;20.50;64.20;;;;;;1474984;79;1126;-59
2023/11/09 07:44:51;;;;;;;;;;;20.50;64.10;;;;;;1488041;79;1587;-59
2023/11/09 07:46:52;;;;;;;;;;;20.60;64.20;;;;;;1488645;79;731;-59
2023/11/09 07:48:57;;;;;;;;;;;20.50;64.20;;;;;;1482511;79;724;-60
2023/11/09 07:50:58;;;;;;;;;;;20.50;64.20;;;;;;1482142;79;1474;-60
2023/11/09 07:53:03;;;;;;;;;;;20.50;64.20;;;;;;1485549;79;1099;-59
2023/11/09 07:55:05;;;;;;;;;;;20.50;64.20;;;;;;1487646;79;831;-59
2023/11/09 07:57:07;;;;;;;;;;;20.50;64.20;;;;;;1482677;79;699;-59
2023/11/09 07:59:09;;;;;;;;;;;20.60;64.10;;;;;;1477419;79;1565;-59
2023/11/09 08:01:11;;;;;;;;;;;20.50;64.20;;;;;;1483136;79;1947;-58
2023/11/09 08:03:17;;;;;;;;;;;20.60;64.20;;;;;;1481338;79;1142;-59
2023/11/09 08:05:17;;;;;;;;;;;20.60;64.10;;;;;;1473917;79;1712;-57
2023/11/09 08:07:19;;;;;;;;;;;20.50;64.10;;;;;;1480510;79;747;-58
2023/11/09 08:09:21;;;;;;;;;;;20.50;64.10;;;;;;1479171;79;704;-58
2023/11/09 08:11:23;;;;;;;;;;;20.50;64.10;;;;;;1476065;79;748;-58
2023/11/09 08:13:28;;;;;;;;;;;20.50;64.20;;;;;;1472462;79;1542;-57
2023/11/09 08:15:30;;;;;;;;;;;20.60;64.10;;;;;;1469313;79;715;-57
2023/11/09 08:17:32;;;;;;;;;;;20.50;64.00;;;;;;1479952;79;665;-57
2023/11/09 08:19:34;;;;;;;;;;;20.50;64.00;;;;;;1472273;79;1943;-57
2023/11/09 08:21:37;;;;;;;;;;;20.50;63.90;;;;;;1472992;79;1147;-58
2023/11/09 08:23:39;;;;;;;;;;;20.60;63.80;;;;;;1473789;79;809;-58
2023/11/09 08:25:41;;;;;;;;;;;20.60;63.80;;;;;;1479336;79;765;-60
2023/11/09 08:27:43;;;;;;;;;;;20.50;63.80;;;;;;1476424;79;1427;-58
2023/11/09 08:29:46;;;;;;;;;;;20.60;63.70;;;;;;1482230;79;750;-57
2023/11/09 08:31:48;;;;;;;;;;;20.60;63.70;;;;;;1474325;79;1159;-59
2023/11/09 08:33:50;;;;;;;;;;;20.60;63.60;;;;;;1482314;79;705;-60
2023/11/09 08:35:53;;;;;;;;;;;20.60;63.60;;;;;;1469325;79;694;-59
2023/11/09 08:38:00;;;;;;;;;;;20.60;63.50;;;;;;1473359;79;648;-58
2023/11/09 08:40:01;;;;;;;;;;;20.60;63.50;;;;;;1474594;79;1960;-56
2023/11/09 08:42:03;;;;;;;;;;;20.70;63.60;;;;;;1481388;79;1153;-58
2023/11/09 08:44:06;;;;;;;;;;;20.60;63.40;;;;;;1483094;79;764;-58
2023/11/09 08:46:08;;;;;;;;;;;20.60;62.30;;;;;;1477960;79;884;-57
2023/11/09 08:48:12;;;;;;;;;;;20.60;61.30;;;;;;1471731;79;676;-55
2023/11/09 08:50:14;;;;;;;;;;;20.60;60.40;;;;;;1476294;79;1946;-56
2023/11/09 08:52:16;;;;;;;;;;;20.60;60.30;;;;;;1479093;79;1126;-57
2023/11/09 08:54:17;;;;;;;;;;;20.70;60.30;;;;;;1473019;79;1503;-58
2023/11/09 08:56:21;;;;;;;;;;;20.60;60.40;;;;;;1476505;79;767;-56
2023/11/09 08:58:24;;;;;;;;;;;20.60;60.60;;;;;;1469770;79;729;-58
2023/11/09 09:00:31;;;;;;;;;;;20.70;60.50;;;;;;1477661;79;1901;-56
2023/11/09 09:02:34;;;;;;;;;;;20.70;60.00;;;;;;1478855;79;1677;-57
2023/11/09 09:04:37;;;;;;;;;;;20.60;59.60;;;;;;1485711;79;708;-59
2023/11/09 09:06:39;;;;;;;;;;;20.70;59.60;;;;;;1482103;79;772;-59
2023/11/09 09:08:42;;;;;;;;;;;20.70;59.50;;;;;;1485036;79;1506;-60
2023/11/09 09:10:44;;;;;;;;;;;20.70;59.60;;;;;;1480328;79;723;-59
2023/11/09 09:12:46;;;;;;;;;;;20.70;59.80;;;;;;1486306;79;1119;-57
2023/11/09 09:14:51;;;;;;;;;;;20.70;60.20;;;;;;1478366;79;998;-56
2023/11/09 09:16:52;;;;;;;;;;;20.70;60.80;;;;;;1472323;79;1647;-60
2023/11/09 09:18:53;;;;;;;;;;;20.70;61.30;;;;;;1471548;79;697;-58
2023/11/09 09:20:55;;;;;;;;;;;20.70;61.60;;;;;;1477178;79;1943;-58
2023/11/09 09:22:59;;;;;;;;;;;20.70;61.90;;;;;;1477737;79;1644;-56
2023/11/09 09:25:01;;;;;;;;;;;20.80;62.00;;;;;;1474848;79;1738;-56
2023/11/09 09:27:04;;;;;;;;;;;20.70;62.20;;;;;;1473581;79;762;-59
2023/11/09 09:29:06;;;;;;;;;;;20.70;62.30;;;;;;1480137;79;689;-59
2023/11/09 09:31:08;;;;;;;;;;;20.70;62.30;;;;;;1474266;79;711;-59
2023/11/09 09:33:10;;;;;;;;;;;20.70;62.30;;;;;;1471765;79;1178;-60
2023/11/09 09:35:12;;;;;;;;;;;20.70;62.40;;;;;;1484792;79;731;-60
2023/11/09 09:37:14;;;;;;;;;;;20.80;62.40;;;;;;1486725;79;1607;-58
2023/11/09 09:39:16;;;;;;;;;;;20.70;62.40;;;;;;1479287;79;691;-59
2023/11/09 09:41:19;;;;;;;;;;;20.70;62.40;;;;;;1481359;79;1929;-57
2023/11/09 09:43:22;;;;;;;;;;;20.70;62.30;;;;;;1478798;79;1134;-58
2023/11/09 09:45:27;;;;;;;;;;;20.70;62.30;;;;;;1486373;79;700;-58
2023/11/09 09:47:30;;;;;;;;;;;20.80;62.30;;;;;;1475570;79;726;-57
2023/11/09 09:49:32;;;;;;;;;;;20.70;62.30;;;;;;1477799;79;757;-56
2023/11/09 09:51:34;;;;;;;;;;;20.70;62.30;;;;;;1483094;79;1574;-58
2023/11/09 09:53:36;;;;;;;;;;;20.70;62.20;;;;;;1480304;79;667;-56
2023/11/09 09:55:40;;;;;;;;;;;20.70;62.20;;;;;;1470378;79;703;-60
2023/11/09 09:57:45;;;;;;;;;;;20.80;62.20;;;;;;1470824;79;1684;-59
2023/11/09 09:59:47;;;;;;;;;;;20.70;62.10;;;;;;1475260;79;713;-59
2023/11/09 10:01:49;;;;;;;;;;;20.70;62.00;;;;;;1479490;79;1960;-58
2023/11/09 10:03:51;;;;;;;;;;;20.80;61.90;;;;;;1478001;79;679;-60
2023/11/09 10:05:53;;;;;;;;;;;20.70;61.80;;;;;;1479421;79;1533;-57
2023/11/09 10:07:59;;;;;;;;;;;20.70;61.80;;;;;;1474515;79;709;-57
2023/11/09 10:10:02;;;;;;;;;;;20.70;61.70;;;;;;1475394;79;669;-55
2023/11/09 10:12:05;;;;;;;;;;;20.80;61.70;;;;;;1475802;79;1158;-57
2023/11/09 10:14:07;;;;;;;;;;;20.70;61.50;;;;;;1478948;79;777;-58
2023/11/09 10:16:09;;;;;;;;;;;20.70;61.60;;;;;;1474856;79;719;-58
2023/11/09 10:18:12;;;;;;;;;;;20.80;61.50;;;;;;1473595;79;708;-58
2023/11/09 10:20:15;;;;;;;;;;;20.70;61.50;;;;;;1474753;79;1677;-56
2023/11/09 10:22:18;;;;;;;;;;;20.80;61.40;;;;;;1483124;79;1854;-57
2023/11/09 10:24:23;;;;;;;;;;;20.70;61.50;;;;;;1484626;79;857;-59
2023/11/09 10:26:26;;;;;;;;;;;20.70;61.40;;;;;;1473711;79;1700;-56
2023/11/09 10:28:32;;;;;;;;;;;20.80;61.50;;;;;;1474944;79;1578;-58
2023/11/09 10:30:32;;;;;;;;;;;20.70;61.50;;;;;;1474645;79;1486;-56
2023/11/09 10:32:36;;;;;;;;;;;20.80;61.50;;;;;;1485164;79;1615;-58
2023/11/09 10:34:38;;;;;;;;;;;20.80;61.50;;;;;;1485526;79;2040;-58
2023/11/09 10:36:41;;;;;;;;;;;20.80;61.50;;;;;;1475148;79;716;-59
2023/11/09 10:38:46;;;;;;;;;;;20.80;61.50;;;;;;1485481;79;735;-55
2023/11/09 10:40:47;;;;;;;;;;;20.80;61.50;;;;;;1470362;79;1934;-55
2023/11/09 10:42:50;;;;;;;;;;;20.80;61.50;;;;;;1476457;79;1151;-58
2023/11/09 10:44:52;;;;;;;;;;;20.80;61.50;;;;;;1480233;79;703;-59
2023/11/09 10:46:55;;;;;;;;;;;20.80;61.50;;;;;;1476930;79;1320;-59
2023/11/09 10:48:58;;;;;;;;;;;20.80;61.50;;;;;;1475948;79;758;-55
2023/11/09 10:51:02;;;;;;;;;;;20.80;61.40;;;;;;1480982;79;787;-58
2023/11/09 10:53:04;;;;;;;;;;;20.80;61.50;;;;;;1478558;79;1586;-58
2023/11/09 10:55:09;;;;;;;;;;;20.80;61.50;;;;;;1486112;79;741;-60
2023/11/09 10:57:09;;;;;;;;;;;20.70;61.50;;;;;;1486141;79;1690;-59
2023/11/09 10:59:11;;;;;;;;;;;20.80;61.40;;;;;;1481729;79;686;-58
2023/11/09 11:01:17;;;;;;;;;;;20.80;61.40;;;;;;1470253;79;1940;-59
2023/11/09 11:03:29;;;;;;;;;;;20.80;61.30;;;;;;1475872;79;1847;-60
2023/11/09 11:05:31;;;;;;;;;;;20.80;61.40;;;;;;1478008;79;1649;-60
2023/11/09 11:07:34;;;;;;;;;;;20.80;61.40;;;;;;1482109;79;709;-60
2023/11/09 11:09:37;;;;;;;;;;;20.80;61.50;;;;;;1482253;79;718;-60
2023/11/09 11:11:40;;;;;;;;;;;20.80;61.50;;;;;;1484799;79;1157;-60
2023/11/09 11:13:43;;;;;;;;;;;20.80;61.50;;;;;;1479772;79;719;-60
2023/11/09 11:15:50;;;;;;;;;;;20.70;61.50;;;;;;1489335;79;1578;-59
2023/11/09 11:17:54;;;;;;;;;;;20.80;61.40;;;;;;1485201;79;1882;-59
2023/11/09 11:20:01;;;;;;;;;;;20.80;61.50;;;;;;1481645;79;722;-60
2023/11/09 11:22:08;;;;;;;;;;;20.70;61.50;;;;;;1484090;79;1952;-59
2023/11/09 11:24:16;;;;;;;;;;;20.70;61.50;;;;;;1484954;79;792;-59
2023/11/09 11:26:18;;;;;;;;;;;20.70;61.50;;;;;;1481930;79;681;-59
2023/11/09 11:28:20;;;;;;;;;;;20.70;61.50;;;;;;1486406;79;909;-57
2023/11/09 11:30:27;;;;;;;;;;;20.70;61.60;;;;;;1477784;79;1363;-59
2023/11/09 11:32:38;;;;;;;;;;;20.80;61.50;;;;;;1474475;79;1225;-59
2023/11/09 11:34:48;;;;;;;;;;;20.70;61.50;;;;;;1474400;79;1726;-59
2023/11/09 11:36:50;;;;;;;;;;;20.70;61.50;;;;;;1480432;79;1054;-59
2023/11/09 11:38:55;;;;;;;;;;;20.70;61.60;;;;;;1463830;80;766;-60
2023/11/09 11:41:08;;;;;;;;;;;20.70;61.60;;;;;;1486032;79;1926;-59
2023/11/09 11:43:11;;;;;;;;;;;20.70;61.60;;;;;;1483203;79;1570;-59
2023/11/09 11:45:14;;;;;;;;;;;20.70;61.60;;;;;;1484990;79;805;-60
2023/11/09 11:47:17;;;;;;;;;;;20.70;61.60;;;;;;1458018;79;671;-59
2023/11/09 11:49:19;;;;;;;;;;;20.70;61.60;;;;;;1475226;79;785;-58
2023/11/09 11:51:23;;;;;;;;;;;20.70;61.60;;;;;;1466725;80;743;-59
2023/11/09 11:53:28;;;;;;;;;;;20.70;61.60;;;;;;1476167;79;1155;-59
2023/11/09 11:55:33;;;;;;;;;;;20.70;61.50;;;;;;1483366;79;761;-59
2023/11/09 11:57:36;;;;;;;;;;;20.70;61.60;;;;;;1472496;79;1569;-59
2023/11/09 11:59:41;;;;;;;;;;;20.70;61.60;;;;;;1478376;79;1661;-60
2023/11/09 12:01:43;;;;;;;;;;;20.70;61.60;;;;;;1480537;79;1894;-58
2023/11/09 12:03:47;;;;;;;;;;;20.70;61.60;;;;;;1479084;79;645;-58
2023/11/09 12:05:49;;;;;;;;;;;20.70;61.60;;;;;;1476656;79;709;-58
2023/11/09 12:07:51;;;;;;;;;;;20.70;61.60;;;;;;1475678;79;730;-59
2023/11/09 12:09:55;;;;;;;;;;;20.70;61.70;;;;;;1474147;79;804;-58
2023/11/09 12:11:58;;;;;;;;;;;20.70;61.70;;;;;;1480207;79;1765;-60
2023/11/09 12:14:01;;;;;;;;;;;20.60;61.60;;;;;;1476852;79;2181;-57
2023/11/09 12:16:03;;;;;;;;;;;20.70;61.70;;;;;;1479762;79;1704;-58
2023/11/09 12:18:06;;;;;;;;;;;20.70;61.70;;;;;;1472913;79;698;-59